sensor_id;sensor_type;location;lat;lon;timestamp;pressure;altitude;pressure_sealevel;temperature;humidity
56632;BME280;42503;39.928;-75.152;2023-02-14T00:03:45;100287.94;;;22.16;33.84
56632;BME280;42503;39.928;-75.152;2023-02-14T00:13:49;100298.25;;;22.16;33.83
56632;BME280;42503;39.928;-75.152;2023-02-14T00:24:14;100299.22;;;22.06;33.50
56632;BME280;42503;39.928;-75.152;2023-02-14T00:34:17;100312.19;;;22.16;33.70
56632;BME280;42503;39.928;-75.152;2023-02-14T00:44:18;100316.44;;;22.13;33.81
56632;BME280;42503;39.928;-75.152;2023-02-14T00:54:20;100292.78;;;21.92;33.57
56632;BME280;42503;39.928;-75.152;2023-02-14T01:04:21;100342.06;;;22.10;34.00
56632;BME280;42503;39.928;-75.152;2023-02-14T01:14:25;100354.88;;;22.11;33.60
56632;BME280;42503;39.928;-75.152;2023-02-14T01:24:27;100357.66;;;22.11;33.42
56632;BME280;42503;39.928;-75.152;2023-02-14T01:34:28;100383.59;;;22.12;33.58
56632;BME280;42503;39.928;-75.152;2023-02-14T01:54:40;100395.03;;;22.10;33.10
56632;BME280;42503;39.928;-75.152;2023-02-14T02:04:45;100406.75;;;22.07;33.05
56632;BME280;42503;39.928;-75.152;2023-02-14T02:14:50;100384.78;;;21.87;33.05
56632;BME280;42503;39.928;-75.152;2023-02-14T02:56:06;100460.97;;;21.96;32.92
56632;BME280;42503;39.928;-75.152;2023-02-14T03:06:30;100473.44;;;21.79;32.72
56632;BME280;42503;39.928;-75.152;2023-02-14T03:16:34;100488.50;;;21.78;33.17
56632;BME280;42503;39.928;-75.152;2023-02-14T03:27:40;100506.34;;;21.77;32.90
56632;BME280;42503;39.928;-75.152;2023-02-14T03:47:29;100520.59;;;21.71;33.27
56632;BME280;42503;39.928;-75.152;2023-02-14T03:57:44;100543.78;;;21.66;33.08
56632;BME280;42503;39.928;-75.152;2023-02-14T04:07:51;100562.81;;;21.59;33.42
56632;BME280;42503;39.928;-75.152;2023-02-14T04:17:53;100568.91;;;21.61;33.63
56632;BME280;42503;39.928;-75.152;2023-02-14T04:28:13;100584.72;;;21.66;33.73
56632;BME280;42503;39.928;-75.152;2023-02-14T04:38:14;100598.59;;;21.71;33.37
56632;BME280;42503;39.928;-75.152;2023-02-14T04:48:15;100638.91;;;21.78;32.86
56632;BME280;42503;39.928;-75.152;2023-02-14T04:58:17;100653.97;;;21.77;33.09
56632;BME280;42503;39.928;-75.152;2023-02-14T05:08:18;100682.06;;;21.81;32.63
56632;BME280;42503;39.928;-75.152;2023-02-14T05:18:20;100685.72;;;21.76;32.49
56632;BME280;42503;39.928;-75.152;2023-02-14T05:28:21;100719.09;;;21.81;32.67
56632;BME280;42503;39.928;-75.152;2023-02-14T05:38:23;100741.66;;;21.80;32.30
56632;BME280;42503;39.928;-75.152;2023-02-14T05:48:24;100767.53;;;21.80;32.25
56632;BME280;42503;39.928;-75.152;2023-02-14T05:58:28;100779.03;;;21.74;32.48
56632;BME280;42503;39.928;-75.152;2023-02-14T06:08:30;100784.31;;;21.75;32.30
56632;BME280;42503;39.928;-75.152;2023-02-14T06:18:31;100808.00;;;21.73;32.24
56632;BME280;42503;39.928;-75.152;2023-02-14T06:28:33;100822.53;;;21.65;32.21
56632;BME280;42503;39.928;-75.152;2023-02-14T06:38:34;100848.97;;;21.72;32.17
56632;BME280;42503;39.928;-75.152;2023-02-14T06:48:38;100862.63;;;21.69;31.94
56632;BME280;42503;39.928;-75.152;2023-02-14T06:58:40;100900.41;;;21.80;32.16
56632;BME280;42503;39.928;-75.152;2023-02-14T07:08:44;100925.22;;;21.81;31.93
56632;BME280;42503;39.928;-75.152;2023-02-14T07:18:46;100946.09;;;21.84;31.87
56632;BME280;42503;39.928;-75.152;2023-02-14T07:28:47;100955.28;;;21.85;31.81
56632;BME280;42503;39.928;-75.152;2023-02-14T07:38:51;100960.31;;;21.82;31.92
56632;BME280;42503;39.928;-75.152;2023-02-14T07:48:53;100984.78;;;21.91;32.06
56632;BME280;42503;39.928;-75.152;2023-02-14T07:58:54;101019.31;;;21.90;31.88
56632;BME280;42503;39.928;-75.152;2023-02-14T08:08:55;101020.44;;;21.89;31.74
56632;BME280;42503;39.928;-75.152;2023-02-14T08:18:57;101049.69;;;21.91;32.08
56632;BME280;42503;39.928;-75.152;2023-02-14T08:29:00;101067.81;;;21.89;31.70
56632;BME280;42503;39.928;-75.152;2023-02-14T08:39:03;101082.84;;;21.88;31.92
56632;BME280;42503;39.928;-75.152;2023-02-14T08:49:05;101094.59;;;21.74;31.69
56632;BME280;42503;39.928;-75.152;2023-02-14T08:59:06;101119.34;;;21.91;31.94
56632;BME280;42503;39.928;-75.152;2023-02-14T09:09:08;101153.03;;;21.90;31.87
56632;BME280;42503;39.928;-75.152;2023-02-14T09:19:09;101186.47;;;21.90;32.06
56632;BME280;42503;39.928;-75.152;2023-02-14T09:29:11;101224.94;;;21.88;32.02
56632;BME280;42503;39.928;-75.152;2023-02-14T09:39:13;101249.47;;;21.86;31.66
56632;BME280;42503;39.928;-75.152;2023-02-14T09:49:17;101254.47;;;21.83;31.88
56632;BME280;42503;39.928;-75.152;2023-02-14T09:59:29;101275.66;;;21.79;32.13
56632;BME280;42503;39.928;-75.152;2023-02-14T10:20:00;101301.56;;;21.65;32.13
56632;BME280;42503;39.928;-75.152;2023-02-14T10:30:14;101338.59;;;21.75;31.84
56632;BME280;42503;39.928;-75.152;2023-02-14T10:40:34;101344.75;;;21.77;31.94
56632;BME280;42503;39.928;-75.152;2023-02-14T11:01:13;101362.56;;;21.76;32.04
56632;BME280;42503;39.928;-75.152;2023-02-14T11:11:20;101368.41;;;21.75;32.21
56632;BME280;42503;39.928;-75.152;2023-02-14T11:21:36;101392.94;;;21.73;31.93
56632;BME280;42503;39.928;-75.152;2023-02-14T11:31:39;101403.25;;;21.72;31.72
56632;BME280;42503;39.928;-75.152;2023-02-14T11:41:49;101438.88;;;21.70;32.18
56632;BME280;42503;39.928;-75.152;2023-02-14T11:51:56;101469.25;;;21.72;32.01
56632;BME280;42503;39.928;-75.152;2023-02-14T12:02:01;101479.25;;;21.68;34.99
56632;BME280;42503;39.928;-75.152;2023-02-14T12:12:20;101487.81;;;21.51;34.52
56632;BME280;42503;39.928;-75.152;2023-02-14T12:22:31;101509.72;;;21.32;33.96
56632;BME280;42503;39.928;-75.152;2023-02-14T12:32:34;101587.56;;;21.59;33.40
56632;BME280;42503;39.928;-75.152;2023-02-14T12:42:46;101613.69;;;21.53;33.48
56632;BME280;42503;39.928;-75.152;2023-02-14T13:24:06;101730.41;;;21.27;34.19
56632;BME280;42503;39.928;-75.152;2023-02-14T13:34:33;101765.41;;;21.18;33.95
56632;BME280;42503;39.928;-75.152;2023-02-14T13:44:47;101759.22;;;21.16;34.09
56632;BME280;42503;39.928;-75.152;2023-02-14T13:55:02;101770.97;;;21.18;34.18
56632;BME280;42503;39.928;-75.152;2023-02-14T14:36:36;101829.88;;;21.10;34.49
56632;BME280;42503;39.928;-75.152;2023-02-14T14:46:37;101824.03;;;21.12;34.17
56632;BME280;42503;39.928;-75.152;2023-02-14T14:57:11;101857.53;;;21.17;33.78
56632;BME280;42503;39.928;-75.152;2023-02-14T15:07:32;101869.97;;;21.31;33.35
56632;BME280;42503;39.928;-75.152;2023-02-14T15:17:33;101884.81;;;21.42;33.25
56632;BME280;42503;39.928;-75.152;2023-02-14T15:27:40;101893.22;;;21.47;33.46
56632;BME280;42503;39.928;-75.152;2023-02-14T15:37:46;101896.91;;;21.52;33.23
56632;BME280;42503;39.928;-75.152;2023-02-14T15:48:14;101911.94;;;21.51;33.33
56632;BME280;42503;39.928;-75.152;2023-02-14T15:58:17;101892.31;;;21.63;33.40
56632;BME280;42503;39.928;-75.152;2023-02-14T16:08:39;101895.97;;;21.69;33.08
56632;BME280;42503;39.928;-75.152;2023-02-14T16:18:47;101877.88;;;21.71;33.14
56632;BME280;42503;39.928;-75.152;2023-02-14T16:28:49;101889.63;;;21.73;33.05
56632;BME280;42503;39.928;-75.152;2023-02-14T16:38:50;101886.00;;;21.73;33.35
56632;BME280;42503;39.928;-75.152;2023-02-14T16:48:53;101871.00;;;21.79;33.24
56632;BME280;42503;39.928;-75.152;2023-02-14T16:58:54;101886.34;;;21.81;33.15
56632;BME280;42503;39.928;-75.152;2023-02-14T17:09:02;101877.41;;;21.79;33.13
56632;BME280;42503;39.928;-75.152;2023-02-14T17:19:08;101849.03;;;21.82;32.87
56632;BME280;42503;39.928;-75.152;2023-02-14T17:29:10;101806.06;;;21.78;33.03
56632;BME280;42503;39.928;-75.152;2023-02-14T17:39:16;101803.59;;;21.82;33.09
56632;BME280;42503;39.928;-75.152;2023-02-14T17:49:17;101793.84;;;21.85;32.96
56632;BME280;42503;39.928;-75.152;2023-02-14T17:59:18;101789.91;;;21.80;32.60
56632;BME280;42503;39.928;-75.152;2023-02-14T18:09:20;101783.78;;;21.78;32.73
56632;BME280;42503;39.928;-75.152;2023-02-14T18:19:21;101783.50;;;21.80;32.54
56632;BME280;42503;39.928;-75.152;2023-02-14T18:29:23;101781.00;;;21.78;32.49
56632;BME280;42503;39.928;-75.152;2023-02-14T18:39:24;101791.63;;;21.81;32.57
56632;BME280;42503;39.928;-75.152;2023-02-14T18:49:26;101788.25;;;21.79;32.38
56632;BME280;42503;39.928;-75.152;2023-02-14T18:59:30;101792.72;;;21.80;32.76
56632;BME280;42503;39.928;-75.152;2023-02-14T19:09:32;101774.00;;;21.76;32.40
56632;BME280;42503;39.928;-75.152;2023-02-14T19:19:38;101778.50;;;21.77;32.40
56632;BME280;42503;39.928;-75.152;2023-02-14T19:29:40;101768.44;;;21.76;32.43
56632;BME280;42503;39.928;-75.152;2023-02-14T19:39:41;101778.69;;;21.70;32.72
56632;BME280;42503;39.928;-75.152;2023-02-14T19:49:43;101790.16;;;21.74;32.55
56632;BME280;42503;39.928;-75.152;2023-02-14T19:59:44;101805.19;;;21.73;32.74
56632;BME280;42503;39.928;-75.152;2023-02-14T20:09:45;101815.50;;;21.72;32.59
56632;BME280;42503;39.928;-75.152;2023-02-14T20:19:47;101788.41;;;21.63;32.74
56632;BME280;42503;39.928;-75.152;2023-02-14T20:29:48;101794.81;;;21.63;32.83
56632;BME280;42503;39.928;-75.152;2023-02-14T20:39:51;101801.44;;;21.57;32.56
56632;BME280;42503;39.928;-75.152;2023-02-14T20:50:01;101844.94;;;21.63;32.60
56632;BME280;42503;39.928;-75.152;2023-02-14T21:00:03;101823.16;;;21.55;32.70
56632;BME280;42503;39.928;-75.152;2023-02-14T21:10:06;101836.00;;;21.61;32.61
56632;BME280;42503;39.928;-75.152;2023-02-14T21:20:07;101851.03;;;21.60;33.05
56632;BME280;42503;39.928;-75.152;2023-02-14T21:30:10;101862.13;;;21.55;33.09
56632;BME280;42503;39.928;-75.152;2023-02-14T21:40:12;101796.88;;;20.97;33.58
56632;BME280;42503;39.928;-75.152;2023-02-14T21:50:13;101894.84;;;21.43;34.04
56632;BME280;42503;39.928;-75.152;2023-02-14T22:00:33;101893.97;;;21.37;34.49
56632;BME280;42503;39.928;-75.152;2023-02-14T22:10:37;101923.25;;;21.40;34.30
56632;BME280;42503;39.928;-75.152;2023-02-14T22:20:39;101942.34;;;21.31;34.38
56632;BME280;42503;39.928;-75.152;2023-02-14T22:30:40;101967.78;;;21.40;34.33
56632;BME280;42503;39.928;-75.152;2023-02-14T22:40:42;101981.13;;;21.38;34.77
56632;BME280;42503;39.928;-75.152;2023-02-14T22:50:43;102007.63;;;21.40;34.60
56632;BME280;42503;39.928;-75.152;2023-02-14T23:00:45;101992.88;;;21.23;34.39
56632;BME280;42503;39.928;-75.152;2023-02-14T23:10:46;102036.81;;;21.38;34.39
56632;BME280;42503;39.928;-75.152;2023-02-14T23:20:51;102024.84;;;21.20;34.40
56632;BME280;42503;39.928;-75.152;2023-02-14T23:31:11;102060.19;;;21.37;34.36
56632;BME280;42503;39.928;-75.152;2023-02-14T23:41:12;102054.53;;;21.31;34.39
56632;BME280;42503;39.928;-75.152;2023-02-14T23:51:33;102072.94;;;21.33;34.61
